Time;durP1;ratioP1;P1;durP2;ratioP2;P2;SDS_P1;SDS_P2;PMS_P1;PMS_P2;Temp;Humidity;BMP_temperature;BMP_pressure;BME280_temperature;BME280_humidity;BME280_pressure;Samples;Min_cycle;Max_cycle;Signal;HPM_P1;HPM_P2
2022/01/30 00:00:24;;;;;;;0.88;0.73;;;;;;;;;;5054885;28;20357;-66
2022/01/30 00:03:11;;;;;;;0.75;0.70;;;;;;;;;;5055898;28;20017;-67
2022/01/30 00:05:56;;;;;;;0.82;0.77;;;;;;;;;;5055685;28;20489;-66
2022/01/30 00:08:42;;;;;;;0.93;0.80;;;;;;;;;;5055926;28;20075;-66
2022/01/30 00:11:32;;;;;;;2.75;1.00;;;;;;;;;;5055827;28;20427;-65
2022/01/30 00:14:20;;;;;;;0.82;0.77;;;;;;;;;;5055434;28;20420;-66
2022/01/30 00:17:12;;;;;;;1.35;0.77;;;;;;;;;;5056403;28;20031;-67
2022/01/30 00:20:02;;;;;;;0.90;0.80;;;;;;;;;;5055710;28;20033;-68
2022/01/30 00:22:56;;;;;;;0.70;0.70;;;;;;;;;;5055586;28;20460;-67
2022/01/30 00:25:48;;;;;;;1.83;0.80;;;;;;;;;;5054989;28;20420;-69
2022/01/30 00:28:33;;;;;;;0.68;0.68;;;;;;;;;;5055510;28;20025;-67
2022/01/30 00:31:21;;;;;;;0.90;0.75;;;;;;;;;;5054574;28;20021;-68
2022/01/30 00:34:06;;;;;;;1.23;0.90;;;;;;;;;;5054842;28;20029;-73
2022/01/30 00:36:52;;;;;;;1.52;1.02;;;;;;;;;;5041557;28;20067;-68
2022/01/30 00:39:37;;;;;;;0.60;0.60;;;;;;;;;;5053828;28;20037;-68
2022/01/30 00:42:24;;;;;;;0.80;0.80;;;;;;;;;;5054455;28;20013;-68
2022/01/30 00:45:09;;;;;;;0.90;0.80;;;;;;;;;;5054404;28;20075;-68
2022/01/30 00:47:55;;;;;;;1.67;1.00;;;;;;;;;;5054997;28;20525;-69
2022/01/30 00:50:40;;;;;;;1.42;1.00;;;;;;;;;;5054629;28;20040;-68
2022/01/30 00:53:26;;;;;;;0.98;0.82;;;;;;;;;;5055113;28;20036;-73
2022/01/30 00:56:12;;;;;;;1.02;0.80;;;;;;;;;;5040275;28;20108;-73
2022/01/30 00:58:57;;;;;;;1.25;0.98;;;;;;;;;;5053481;28;20033;-72
2022/01/30 01:01:43;;;;;;;2.15;0.90;;;;;;;;;;5054936;28;20039;-71
2022/01/30 01:04:29;;;;;;;3.20;0.85;;;;;;;;;;5055682;28;20025;-73
2022/01/30 01:07:22;;;;;;;1.05;0.95;;;;;;;;;;5054582;28;20040;-73
2022/01/30 01:10:15;;;;;;;1.23;0.80;;;;;;;;;;5053198;28;20045;-72
2022/01/30 01:25:04;;;;;;;3.00;1.10;;;;;;;;;;5054397;28;20045;-66
2022/01/30 01:27:50;;;;;;;2.17;0.98;;;;;;;;;;5054158;28;20365;-66
2022/01/30 01:30:35;;;;;;;1.70;0.95;;;;;;;;;;5054398;28;20032;-68
2022/01/30 01:33:23;;;;;;;3.22;0.88;;;;;;;;;;5054112;28;20017;-69
2022/01/30 01:36:09;;;;;;;1.08;0.82;;;;;;;;;;5053886;28;20029;-68
2022/01/30 01:38:55;;;;;;;1.00;0.90;;;;;;;;;;5053652;28;20534;-68
2022/01/30 01:41:40;;;;;;;1.73;0.90;;;;;;;;;;5053608;28;20017;-67
2022/01/30 01:44:38;;;;;;;1.35;0.98;;;;;;;;;;5054046;28;20449;-67
2022/01/30 01:47:28;;;;;;;1.85;1.25;;;;;;;;;;5053783;28;20017;-63
2022/01/30 01:50:38;;;;;;;1.08;0.80;;;;;;;;;;5039210;28;20032;-61
2022/01/30 01:53:25;;;;;;;1.52;0.80;;;;;;;;;;5053888;28;20016;-61
2022/01/30 01:56:12;;;;;;;1.35;1.00;;;;;;;;;;5053539;28;20124;-61
2022/01/30 01:58:58;;;;;;;1.40;1.00;;;;;;;;;;5038592;28;20037;-60
2022/01/30 02:01:48;;;;;;;3.08;1.08;;;;;;;;;;5053575;28;20111;-62
2022/01/30 02:04:34;;;;;;;2.90;1.15;;;;;;;;;;5053380;28;20027;-62
2022/01/30 02:28:20;;;;;;;3.42;1.23;;;;;;;;;;5053098;28;20013;-64
2022/01/30 02:31:11;;;;;;;2.17;1.00;;;;;;;;;;5051772;28;20025;-64
2022/01/30 02:33:56;;;;;;;1.73;1.25;;;;;;;;;;5053328;28;20063;-65
2022/01/30 02:36:45;;;;;;;1.67;1.13;;;;;;;;;;5052426;28;20020;-64
2022/01/30 02:39:31;;;;;;;3.58;1.30;;;;;;;;;;5051838;28;20075;-64
2022/01/30 02:42:20;;;;;;;1.55;1.20;;;;;;;;;;5051499;28;20020;-64
2022/01/30 02:45:09;;;;;;;2.60;1.30;;;;;;;;;;5051668;28;20084;-67
2022/01/30 02:48:12;;;;;;;1.67;1.20;;;;;;;;;;5051934;28;20025;-61
2022/01/30 02:51:09;;;;;;;2.95;1.15;;;;;;;;;;5051715;28;20115;-63
2022/01/30 02:54:03;;;;;;;1.23;1.08;;;;;;;;;;5051566;28;20494;-62
2022/01/30 02:56:48;;;;;;;1.10;1.00;;;;;;;;;;5051579;28;20028;-62
2022/01/30 02:59:34;;;;;;;1.70;1.10;;;;;;;;;;5051386;28;20033;-61
2022/01/30 03:02:19;;;;;;;1.52;1.20;;;;;;;;;;5038185;28;20020;-67
2022/01/30 03:05:05;;;;;;;11.27;2.03;;;;;;;;;;5052065;28;20025;-66
2022/01/30 03:07:52;;;;;;;1.90;1.50;;;;;;;;;;5051544;28;20028;-67
2022/01/30 03:10:37;;;;;;;2.10;1.23;;;;;;;;;;5053227;28;20146;-67
2022/01/30 03:13:23;;;;;;;3.67;1.65;;;;;;;;;;5051880;28;20017;-67
2022/01/30 03:16:08;;;;;;;3.33;1.30;;;;;;;;;;5038795;28;20171;-67
2022/01/30 03:18:54;;;;;;;3.88;1.52;;;;;;;;;;5051258;28;20182;-67
2022/01/30 03:21:40;;;;;;;4.55;1.05;;;;;;;;;;5052097;28;20028;-61
2022/01/30 03:24:25;;;;;;;4.03;1.67;;;;;;;;;;5051538;28;20049;-66
2022/01/30 03:27:13;;;;;;;3.30;1.30;;;;;;;;;;5052976;28;20114;-67
2022/01/30 03:30:06;;;;;;;6.32;1.70;;;;;;;;;;5052528;28;20021;-67
2022/01/30 03:32:52;;;;;;;2.40;1.48;;;;;;;;;;5036882;28;20029;-67
2022/01/30 03:35:38;;;;;;;2.92;1.45;;;;;;;;;;5051972;28;20021;-67
2022/01/30 03:38:24;;;;;;;1.30;0.88;;;;;;;;;;5052926;28;20072;-62
2022/01/30 03:41:10;;;;;;;3.70;1.60;;;;;;;;;;5051122;28;20025;-67
2022/01/30 03:43:55;;;;;;;1.27;1.00;;;;;;;;;;5051816;28;20389;-65
2022/01/30 03:46:41;;;;;;;2.17;1.20;;;;;;;;;;5051760;28;20075;-65
2022/01/30 03:49:27;;;;;;;3.88;1.20;;;;;;;;;;5052771;28;20108;-65
2022/01/30 03:52:12;;;;;;;1.48;0.82;;;;;;;;;;5051459;28;20028;-65
2022/01/30 03:54:58;;;;;;;1.70;1.00;;;;;;;;;;5051602;28;20029;-65
2022/01/30 03:57:43;;;;;;;1.70;1.10;;;;;;;;;;5051681;28;20063;-62
2022/01/30 04:00:29;;;;;;;3.22;1.02;;;;;;;;;;5051522;28;20429;-64
2022/01/30 04:03:15;;;;;;;4.70;0.90;;;;;;;;;;5050306;28;20017;-65
2022/01/30 04:06:00;;;;;;;2.92;1.00;;;;;;;;;;5051813;28;20091;-65
2022/01/30 04:08:46;;;;;;;3.70;0.85;;;;;;;;;;5051204;28;20017;-65
2022/01/30 04:11:32;;;;;;;2.97;1.25;;;;;;;;;;5036498;28;20031;-65
2022/01/30 04:14:17;;;;;;;2.53;1.05;;;;;;;;;;5051199;28;20088;-64
2022/01/30 04:17:04;;;;;;;3.85;1.20;;;;;;;;;;5051659;28;20108;-67
2022/01/30 04:19:50;;;;;;;1.92;1.23;;;;;;;;;;5054618;28;20456;-62
2022/01/30 04:22:35;;;;;;;6.63;1.50;;;;;;;;;;5054242;28;20027;-62
2022/01/30 04:25:21;;;;;;;5.85;1.38;;;;;;;;;;5054234;28;20057;-62
2022/01/30 04:28:07;;;;;;;8.00;1.90;;;;;;;;;;5054252;28;20043;-61
2022/01/30 04:30:53;;;;;;;5.35;2.10;;;;;;;;;;5054038;28;20103;-61
2022/01/30 04:33:38;;;;;;;5.43;2.03;;;;;;;;;;5041450;28;20060;-64
2022/01/30 04:36:29;;;;;;;7.50;1.80;;;;;;;;;;5053895;28;20021;-62
2022/01/30 04:39:34;;;;;;;10.95;2.60;;;;;;;;;;5053833;28;20060;-62
2022/01/30 04:56:09;;;;;;;9.35;2.90;;;;;;;;;;5055183;28;20112;-62
2022/01/30 04:58:17;;;;;;;12.20;2.78;;;;;;;;;;5048044;28;20545;-63
2022/01/30 05:01:15;;;;;;;8.90;2.72;;;;;;;;;;5055149;28;20020;-62
2022/01/30 05:04:30;;;;;;;10.15;2.80;;;;;;;;;;5053224;28;20021;-62
2022/01/30 05:09:53;;;;;;;12.88;3.53;;;;;;;;;;5053649;28;20373;-62
2022/01/30 05:12:51;;;;;;;13.48;2.83;;;;;;;;;;5054077;28;20028;-67
2022/01/30 05:15:37;;;;;;;11.07;3.30;;;;;;;;;;5053082;28;20032;-62
2022/01/30 05:18:24;;;;;;;12.00;3.45;;;;;;;;;;5040399;28;20102;-62
2022/01/30 05:21:09;;;;;;;10.15;3.08;;;;;;;;;;5053098;28;20104;-62
2022/01/30 05:23:55;;;;;;;10.07;2.80;;;;;;;;;;5053760;28;20017;-61
2022/01/30 05:26:41;;;;;;;9.35;2.97;;;;;;;;;;5039162;28;20045;-62
2022/01/30 05:29:27;;;;;;;14.07;3.20;;;;;;;;;;5051962;28;20535;-67
2022/01/30 05:32:13;;;;;;;7.43;2.78;;;;;;;;;;5052948;28;20102;-65
2022/01/30 05:34:59;;;;;;;11.48;3.65;;;;;;;;;;5053406;28;20029;-66
2022/01/30 05:37:44;;;;;;;10.13;3.30;;;;;;;;;;5040369;28;20028;-66
2022/01/30 05:40:30;;;;;;;14.23;3.55;;;;;;;;;;5038859;28;20457;-66
2022/01/30 05:43:16;;;;;;;13.15;3.75;;;;;;;;;;5052742;28;20067;-66
2022/01/30 05:46:11;;;;;;;8.52;3.45;;;;;;;;;;5052266;28;20021;-67
2022/01/30 05:48:57;;;;;;;10.35;3.50;;;;;;;;;;5054414;28;20041;-68
2022/01/30 05:51:42;;;;;;;13.15;3.42;;;;;;;;;;5053074;28;20490;-66
2022/01/30 05:54:28;;;;;;;11.20;3.05;;;;;;;;;;5053139;28;20119;-66
2022/01/30 05:57:14;;;;;;;15.70;4.20;;;;;;;;;;5053181;28;20487;-65
2022/01/30 05:59:59;;;;;;;13.43;4.03;;;;;;;;;;5052452;28;20120;-66
2022/01/30 06:02:45;;;;;;;18.40;3.83;;;;;;;;;;5053861;28;20020;-66
2022/01/30 06:05:31;;;;;;;13.07;3.60;;;;;;;;;;5052233;28;20348;-65
2022/01/30 06:08:38;;;;;;;15.30;3.45;;;;;;;;;;5052091;28;20051;-68
2022/01/30 06:11:22;;;;;;;10.98;3.35;;;;;;;;;;5053674;28;20108;-68
2022/01/30 06:14:08;;;;;;;14.00;3.53;;;;;;;;;;5052409;28;20017;-66
2022/01/30 06:16:53;;;;;;;20.23;4.97;;;;;;;;;;5052852;28;20024;-68
2022/01/30 06:19:39;;;;;;;11.82;4.35;;;;;;;;;;5052021;28;20072;-68
2022/01/30 06:22:25;;;;;;;13.18;3.80;;;;;;;;;;5052699;28;20419;-69
2022/01/30 06:25:10;;;;;;;13.85;3.72;;;;;;;;;;5052265;28;20477;-67
2022/01/30 06:27:56;;;;;;;12.82;2.95;;;;;;;;;;5052434;28;20436;-65
2022/01/30 06:30:41;;;;;;;10.05;3.45;;;;;;;;;;5052861;28;20028;-64
2022/01/30 06:33:27;;;;;;;10.18;3.15;;;;;;;;;;5052110;28;20080;-65
2022/01/30 06:36:12;;;;;;;12.10;3.03;;;;;;;;;;5052560;28;20035;-65
2022/01/30 06:38:58;;;;;;;13.05;3.03;;;;;;;;;;5052220;28;20472;-64
2022/01/30 06:41:44;;;;;;;11.30;5.05;;;;;;;;;;5052405;28;20025;-61
2022/01/30 06:44:29;;;;;;;13.40;3.85;;;;;;;;;;5051780;28;20563;-67
2022/01/30 06:47:15;;;;;;;11.80;4.07;;;;;;;;;;5037317;28;20487;-63
2022/01/30 06:50:01;;;;;;;11.00;3.22;;;;;;;;;;5037896;28;20470;-62
2022/01/30 06:52:46;;;;;;;18.60;5.57;;;;;;;;;;5052175;28;20029;-63
2022/01/30 06:55:32;;;;;;;11.35;3.55;;;;;;;;;;5052657;28;20017;-62
2022/01/30 06:58:18;;;;;;;13.52;3.20;;;;;;;;;;5051839;28;20052;-62
2022/01/30 07:01:03;;;;;;;10.60;2.97;;;;;;;;;;5051618;28;20369;-68
2022/01/30 07:03:49;;;;;;;10.95;4.47;;;;;;;;;;5052040;28;20100;-68
2022/01/30 07:06:34;;;;;;;13.40;3.88;;;;;;;;;;5052119;28;20063;-68
2022/01/30 07:09:20;;;;;;;11.60;3.33;;;;;;;;;;5051650;28;20115;-69
2022/01/30 07:12:06;;;;;;;11.95;3.30;;;;;;;;;;5052206;28;20024;-69
2022/01/30 07:14:52;;;;;;;12.63;3.55;;;;;;;;;;5051419;28;20384;-69
2022/01/30 07:17:37;;;;;;;12.90;3.88;;;;;;;;;;5051591;28;20028;-68
2022/01/30 07:20:23;;;;;;;14.68;3.08;;;;;;;;;;5052761;28;20068;-66
2022/01/30 07:23:09;;;;;;;12.75;2.90;;;;;;;;;;5051777;28;20032;-67
2022/01/30 07:25:54;;;;;;;14.90;3.72;;;;;;;;;;5051225;28;20049;-68
2022/01/30 07:28:40;;;;;;;10.32;3.03;;;;;;;;;;5051466;28;20025;-68
2022/01/30 07:31:25;;;;;;;7.63;3.33;;;;;;;;;;5051816;28;20025;-68
2022/01/30 07:34:11;;;;;;;10.10;3.78;;;;;;;;;;5051459;28;20468;-67
2022/01/30 07:36:58;;;;;;;13.48;3.15;;;;;;;;;;5051859;28;20024;-64
2022/01/30 07:39:43;;;;;;;14.77;3.70;;;;;;;;;;5051034;28;20460;-67
2022/01/30 07:42:29;;;;;;;12.77;3.58;;;;;;;;;;5051408;28;20057;-69
2022/01/30 07:45:15;;;;;;;10.75;2.88;;;;;;;;;;5051579;28;20033;-69
2022/01/30 07:48:01;;;;;;;12.38;3.78;;;;;;;;;;5051428;28;20513;-69
2022/01/30 07:50:47;;;;;;;15.20;3.72;;;;;;;;;;5052817;28;20484;-68
2022/01/30 07:53:33;;;;;;;12.20;4.18;;;;;;;;;;5040641;28;20017;-69
2022/01/30 07:56:18;;;;;;;12.75;4.13;;;;;;;;;;5041936;28;20025;-68
2022/01/30 07:59:04;;;;;;;15.32;4.05;;;;;;;;;;5040317;28;20033;-66
2022/01/30 08:01:49;;;;;;;15.25;4.25;;;;;;;;;;5055242;28;20060;-66
2022/01/30 08:04:35;;;;;;;14.82;3.80;;;;;;;;;;5055261;28;20028;-66
2022/01/30 08:07:21;;;;;;;13.68;3.67;;;;;;;;;;5055450;28;20023;-66
2022/01/30 08:10:06;;;;;;;17.63;3.90;;;;;;;;;;5055629;28;20048;-66
2022/01/30 08:12:52;;;;;;;14.68;3.85;;;;;;;;;;5056158;28;20024;-66
2022/01/30 08:15:38;;;;;;;11.75;3.42;;;;;;;;;;5054874;28;20009;-65
2022/01/30 08:18:23;;;;;;;16.48;4.13;;;;;;;;;;5055012;28;20041;-69
2022/01/30 08:21:09;;;;;;;16.23;4.07;;;;;;;;;;5055617;28;20021;-68
2022/01/30 08:23:54;;;;;;;14.65;3.33;;;;;;;;;;5055154;28;20427;-69
2022/01/30 08:26:40;;;;;;;16.15;3.97;;;;;;;;;;5055446;28;20491;-68
2022/01/30 08:29:25;;;;;;;14.65;3.63;;;;;;;;;;5054904;28;20017;-70
2022/01/30 08:32:11;;;;;;;15.00;3.22;;;;;;;;;;5054851;28;20028;-62
2022/01/30 08:34:57;;;;;;;13.30;3.55;;;;;;;;;;5054154;28;20032;-68
2022/01/30 08:37:43;;;;;;;16.27;3.63;;;;;;;;;;5054085;28;20029;-68
2022/01/30 08:40:28;;;;;;;10.10;3.33;;;;;;;;;;5053979;28;20037;-68
2022/01/30 08:43:14;;;;;;;17.45;4.45;;;;;;;;;;5054732;28;20419;-68
2022/01/30 08:46:00;;;;;;;18.83;4.95;;;;;;;;;;5054160;28;20029;-68
2022/01/30 08:48:46;;;;;;;17.85;3.80;;;;;;;;;;5054542;28;20511;-69
2022/01/30 08:51:31;;;;;;;14.57;4.22;;;;;;;;;;5054565;28;20032;-63
2022/01/30 08:54:18;;;;;;;15.85;4.28;;;;;;;;;;5053894;28;20021;-67
2022/01/30 08:57:03;;;;;;;14.75;4.10;;;;;;;;;;5040992;28;20025;-66
2022/01/30 08:59:50;;;;;;;14.95;4.57;;;;;;;;;;5053468;28;20037;-67
2022/01/30 09:02:37;;;;;;;17.88;4.53;;;;;;;;;;5054024;28;20025;-67
2022/01/30 09:05:24;;;;;;;26.65;4.13;;;;;;;;;;5052669;28;20025;-66
2022/01/30 09:08:09;;;;;;;14.45;4.03;;;;;;;;;;5055474;28;20460;-67
2022/01/30 09:10:57;;;;;;;15.38;3.83;;;;;;;;;;5053782;28;20056;-66
2022/01/30 09:13:42;;;;;;;15.52;3.88;;;;;;;;;;5054702;28;20028;-65
2022/01/30 09:16:28;;;;;;;17.48;4.57;;;;;;;;;;5054138;28;20025;-65
2022/01/30 09:19:15;;;;;;;16.35;3.95;;;;;;;;;;5053342;28;20047;-65
2022/01/30 09:22:00;;;;;;;14.05;3.80;;;;;;;;;;5053818;28;20025;-65
2022/01/30 09:24:46;;;;;;;17.25;4.18;;;;;;;;;;5053727;28;20057;-67
2022/01/30 09:27:32;;;;;;;11.85;3.53;;;;;;;;;;5053342;28;20017;-66
2022/01/30 09:30:18;;;;;;;16.33;3.33;;;;;;;;;;5053799;28;20341;-65
2022/01/30 09:33:03;;;;;;;14.38;3.97;;;;;;;;;;5055247;28;20082;-67
2022/01/30 09:35:49;;;;;;;17.00;4.25;;;;;;;;;;5053677;28;20044;-69
2022/01/30 09:38:34;;;;;;;14.05;3.95;;;;;;;;;;5053692;28;20036;-70
2022/01/30 09:41:21;;;;;;;12.25;3.50;;;;;;;;;;5053294;28;20460;-68
2022/01/30 09:44:06;;;;;;;13.82;3.67;;;;;;;;;;5054791;28;20024;-69
2022/01/30 09:46:52;;;;;;;13.85;3.95;;;;;;;;;;5040369;28;20013;-62
2022/01/30 09:49:39;;;;;;;13.57;4.40;;;;;;;;;;5053121;28;20036;-61
2022/01/30 09:52:24;;;;;;;17.77;4.10;;;;;;;;;;5052732;28;20044;-61
2022/01/30 09:55:11;;;;;;;17.48;3.67;;;;;;;;;;5053396;28;20048;-61
2022/01/30 09:57:56;;;;;;;16.83;4.40;;;;;;;;;;5052927;28;20056;-62
2022/01/30 10:00:42;;;;;;;19.10;3.75;;;;;;;;;;5052972;28;20392;-61
2022/01/30 10:03:27;;;;;;;12.00;3.05;;;;;;;;;;5052791;28;20017;-63
2022/01/30 10:06:16;;;;;;;11.90;3.03;;;;;;;;;;5053027;28;20046;-64
2022/01/30 10:09:21;;;;;;;10.52;3.33;;;;;;;;;;5052722;28;20468;-64
2022/01/30 10:12:15;;;;;;;20.23;5.63;;;;;;;;;;5052647;28;20060;-64
2022/01/30 10:15:03;;;;;;;20.13;4.35;;;;;;;;;;5052085;28;20036;-68
2022/01/30 10:17:50;;;;;;;13.63;3.72;;;;;;;;;;5052074;28;20013;-65
2022/01/30 10:20:37;;;;;;;12.90;3.35;;;;;;;;;;5052179;28;20032;-66
2022/01/30 10:23:35;;;;;;;12.32;3.25;;;;;;;;;;5053992;28;20539;-61
2022/01/30 10:26:29;;;;;;;14.63;3.80;;;;;;;;;;5051474;28;20500;-68
2022/01/30 10:29:18;;;;;;;14.75;3.35;;;;;;;;;;5039564;28;20066;-68
2022/01/30 10:32:07;;;;;;;13.13;3.47;;;;;;;;;;5052735;28;20057;-68
2022/01/30 10:34:57;;;;;;;15.05;4.35;;;;;;;;;;5051930;28;20111;-64
2022/01/30 10:37:43;;;;;;;14.65;3.78;;;;;;;;;;5051638;28;20047;-64
2022/01/30 10:40:36;;;;;;;12.77;3.67;;;;;;;;;;5051798;28;20411;-64
2022/01/30 10:43:22;;;;;;;13.82;3.85;;;;;;;;;;5053145;28;20017;-65
2022/01/30 10:46:16;;;;;;;13.48;3.65;;;;;;;;;;5052117;28;20059;-65
2022/01/30 10:49:09;;;;;;;13.65;3.08;;;;;;;;;;5051750;28;20029;-64
2022/01/30 10:51:55;;;;;;;13.88;4.47;;;;;;;;;;5052026;28;20021;-66
2022/01/30 10:54:41;;;;;;;13.65;3.58;;;;;;;;;;5051634;28;20127;-66
2022/01/30 10:57:27;;;;;;;30.30;3.78;;;;;;;;;;5039264;28;20021;-66
2022/01/30 11:00:13;;;;;;;12.23;2.97;;;;;;;;;;5052225;28;20163;-65
2022/01/30 11:02:58;;;;;;;16.88;3.75;;;;;;;;;;5053313;28;20052;-63
2022/01/30 11:05:54;;;;;;;11.65;3.30;;;;;;;;;;5052305;28;20025;-62
2022/01/30 11:08:42;;;;;;;16.42;4.20;;;;;;;;;;5051550;28;20024;-62
2022/01/30 11:11:36;;;;;;;12.63;3.95;;;;;;;;;;5051377;28;20099;-63
2022/01/30 11:14:34;;;;;;;15.45;12.25;;;;;;;;;;5051253;28;20017;-64
2022/01/30 11:17:22;;;;;;;16.95;3.72;;;;;;;;;;5052637;28;20025;-63
2022/01/30 11:20:07;;;;;;;15.43;3.95;;;;;;;;;;5051771;28;20037;-68
2022/01/30 11:22:54;;;;;;;11.50;3.42;;;;;;;;;;5051433;28;20051;-65
2022/01/30 11:25:43;;;;;;;16.38;3.70;;;;;;;;;;5032487;28;20103;-67
2022/01/30 11:28:29;;;;;;;16.92;4.43;;;;;;;;;;5035401;28;20021;-66
2022/01/30 11:31:16;;;;;;;18.13;5.63;;;;;;;;;;5035074;28;20088;-67
2022/01/30 11:34:02;;;;;;;13.00;3.60;;;;;;;;;;5035338;28;20063;-66
2022/01/30 11:36:48;;;;;;;15.07;3.38;;;;;;;;;;5035438;28;20022;-66
2022/01/30 11:39:35;;;;;;;15.00;3.63;;;;;;;;;;5034640;28;20485;-65
2022/01/30 11:42:23;;;;;;;13.45;4.07;;;;;;;;;;5036374;28;20428;-69
2022/01/30 11:45:08;;;;;;;13.30;3.78;;;;;;;;;;5035212;28;20018;-70
2022/01/30 11:48:06;;;;;;;16.13;3.35;;;;;;;;;;5035252;28;20037;-69
2022/01/30 11:51:01;;;;;;;17.95;3.75;;;;;;;;;;5034715;28;20468;-69
2022/01/30 11:53:46;;;;;;;13.45;3.80;;;;;;;;;;5035008;28;20033;-68
2022/01/30 11:56:32;;;;;;;14.77;4.20;;;;;;;;;;5035310;28;20109;-64
2022/01/30 11:59:34;;;;;;;16.63;5.60;;;;;;;;;;5034914;28;20029;-67
2022/01/30 12:02:19;;;;;;;13.45;3.75;;;;;;;;;;5035893;28;20045;-67
2022/01/30 12:05:09;;;;;;;12.55;3.42;;;;;;;;;;5035124;28;20540;-66
2022/01/30 12:07:54;;;;;;;9.50;3.08;;;;;;;;;;5035028;28;20021;-68
2022/01/30 12:10:40;;;;;;;10.98;4.72;;;;;;;;;;5034948;28;20380;-68
2022/01/30 12:13:44;;;;;;;13.95;3.75;;;;;;;;;;5036354;28;20045;-66
2022/01/30 12:16:48;;;;;;;12.18;3.60;;;;;;;;;;5034779;28;20045;-66
2022/01/30 12:19:34;;;;;;;12.27;3.38;;;;;;;;;;5035128;28;20468;-68
2022/01/30 12:22:28;;;;;;;17.35;3.70;;;;;;;;;;5034274;28;20025;-66
2022/01/30 12:25:20;;;;;;;13.93;3.42;;;;;;;;;;5043025;28;20103;-66
2022/01/30 12:28:07;;;;;;;9.68;3.45;;;;;;;;;;5054277;28;20031;-64
2022/01/30 12:30:55;;;;;;;9.82;3.28;;;;;;;;;;5041539;28;20427;-63
2022/01/30 12:33:42;;;;;;;11.88;3.42;;;;;;;;;;5041501;28;20052;-63
2022/01/30 12:36:30;;;;;;;15.30;3.47;;;;;;;;;;5053904;28;20032;-66
2022/01/30 12:39:18;;;;;;;17.05;3.38;;;;;;;;;;5053773;28;20033;-69
2022/01/30 12:42:04;;;;;;;13.38;3.22;;;;;;;;;;5054176;28;20043;-66
2022/01/30 12:44:50;;;;;;;15.55;3.70;;;;;;;;;;5055849;28;20021;-66
2022/01/30 12:47:57;;;;;;;13.05;3.47;;;;;;;;;;5055715;28;20143;-66
2022/01/30 12:50:46;;;;;;;13.60;3.85;;;;;;;;;;5055290;28;20074;-60
2022/01/30 12:53:35;;;;;;;;;;;;;;;;;;5054596;28;20053;-61
2022/01/30 12:56:21;;;;;;;10.85;3.33;;;;;;;;;;5055822;28;19909;-62
2022/01/30 12:59:07;;;;;;;13.90;2.95;;;;;;;;;;5053805;28;20040;-61
2022/01/30 13:01:52;;;;;;;17.60;4.30;;;;;;;;;;5053823;28;20025;-62
2022/01/30 13:04:38;;;;;;;16.83;4.80;;;;;;;;;;5054444;28;20025;-61
2022/01/30 13:07:23;;;;;;;17.20;3.95;;;;;;;;;;5053614;28;20071;-62
2022/01/30 13:10:11;;;;;;;17.55;4.35;;;;;;;;;;5054352;28;20087;-69
2022/01/30 13:12:58;;;;;;;13.77;3.50;;;;;;;;;;5054685;28;20033;-67
2022/01/30 13:15:55;;;;;;;13.57;3.72;;;;;;;;;;5053160;28;20025;-66
2022/01/30 13:18:43;;;;;;;16.05;3.60;;;;;;;;;;5053366;28;20512;-68
2022/01/30 13:21:30;;;;;;;12.18;3.28;;;;;;;;;;5054023;28;20073;-66
2022/01/30 13:24:17;;;;;;;17.08;3.50;;;;;;;;;;5053071;28;20487;-68
2022/01/30 13:27:06;;;;;;;14.85;4.00;;;;;;;;;;5053293;28;20033;-67
2022/01/30 13:29:55;;;;;;;18.15;3.83;;;;;;;;;;5053166;28;20473;-70
2022/01/30 13:32:41;;;;;;;13.73;3.70;;;;;;;;;;5052926;28;20017;-68
2022/01/30 13:35:29;;;;;;;11.55;3.75;;;;;;;;;;5053885;28;20463;-67
2022/01/30 13:38:15;;;;;;;15.20;3.70;;;;;;;;;;5040574;28;20013;-68
2022/01/30 13:41:05;;;;;;;12.98;4.28;;;;;;;;;;5052889;28;20032;-67
2022/01/30 13:43:59;;;;;;;11.07;3.05;;;;;;;;;;5053046;28;20047;-67
2022/01/30 13:46:57;;;;;;;14.60;3.20;;;;;;;;;;5053010;28;20471;-63
2022/01/30 13:49:43;;;;;;;11.57;3.40;;;;;;;;;;5053536;28;20529;-69
2022/01/30 13:52:30;;;;;;;14.10;3.50;;;;;;;;;;5052903;28;20383;-69
2022/01/30 13:55:16;;;;;;;10.70;3.45;;;;;;;;;;5052835;28;20483;-69
2022/01/30 13:58:03;;;;;;;12.85;4.18;;;;;;;;;;5053890;28;20020;-67
2022/01/30 14:00:48;;;;;;;12.70;3.65;;;;;;;;;;5052574;28;20032;-68
2022/01/30 14:03:35;;;;;;;15.32;3.35;;;;;;;;;;5053016;28;20535;-69
2022/01/30 14:06:22;;;;;;;12.88;3.60;;;;;;;;;;5052294;28;20021;-68
2022/01/30 14:09:12;;;;;;;9.80;3.58;;;;;;;;;;5052319;28;20016;-69
2022/01/30 14:12:02;;;;;;;13.25;2.75;;;;;;;;;;5052251;28;20021;-69
2022/01/30 14:15:07;;;;;;;16.33;3.35;;;;;;;;;;5053408;28;20025;-69
2022/01/30 14:18:06;;;;;;;14.18;3.17;;;;;;;;;;5052963;28;20415;-68
2022/01/30 14:20:52;;;;;;;12.30;3.47;;;;;;;;;;5054178;28;20396;-67
2022/01/30 14:23:38;;;;;;;14.13;3.42;;;;;;;;;;5052310;28;20083;-66
2022/01/30 14:26:24;;;;;;;14.38;3.63;;;;;;;;;;5052353;28;20077;-65
2022/01/30 14:29:16;;;;;;;12.65;3.45;;;;;;;;;;5052379;28;20037;-65
2022/01/30 14:32:07;;;;;;;12.68;3.00;;;;;;;;;;5037629;28;20100;-65
2022/01/30 14:34:53;;;;;;;9.63;3.38;;;;;;;;;;5052092;28;20490;-64
2022/01/30 14:37:43;;;;;;;14.95;3.20;;;;;;;;;;5052708;28;20102;-65
2022/01/30 14:40:29;;;;;;;19.15;3.60;;;;;;;;;;5051909;28;20033;-67
2022/01/30 14:43:14;;;;;;;11.93;3.35;;;;;;;;;;5052645;28;20016;-65
2022/01/30 14:46:00;;;;;;;14.88;2.95;;;;;;;;;;5052680;28;20025;-64
2022/01/30 14:48:46;;;;;;;12.35;2.88;;;;;;;;;;5052403;28;20111;-64
2022/01/30 14:51:32;;;;;;;14.65;3.40;;;;;;;;;;5051776;28;20498;-64
2022/01/30 14:54:18;;;;;;;10.93;2.95;;;;;;;;;;5053011;28;20031;-64
2022/01/30 14:57:04;;;;;;;12.88;3.00;;;;;;;;;;5052967;28;20104;-64
2022/01/30 14:59:49;;;;;;;12.40;3.35;;;;;;;;;;5051476;28;20083;-65
2022/01/30 15:02:35;;;;;;;11.82;3.35;;;;;;;;;;5037816;28;20021;-65
2022/01/30 15:05:21;;;;;;;13.20;3.95;;;;;;;;;;5051939;28;20051;-64
2022/01/30 15:08:06;;;;;;;11.68;3.60;;;;;;;;;;5051298;28;20017;-65
2022/01/30 15:10:52;;;;;;;11.02;3.17;;;;;;;;;;5052325;28;20028;-65
2022/01/30 15:13:39;;;;;;;12.57;2.67;;;;;;;;;;5052076;28;20029;-66
2022/01/30 15:16:58;;;;;;;11.75;3.13;;;;;;;;;;5052389;28;20100;-65
2022/01/30 15:19:36;;;;;;;16.23;4.25;;;;;;;;;;5052216;28;20183;-70
2022/01/30 15:22:24;;;;;;;12.43;3.92;;;;;;;;;;5052140;28;20144;-70
2022/01/30 15:25:10;;;;;;;14.65;3.25;;;;;;;;;;5050983;28;20542;-71
2022/01/30 15:27:55;;;;;;;14.13;3.40;;;;;;;;;;5038855;28;20017;-72
2022/01/30 15:30:41;;;;;;;9.65;3.25;;;;;;;;;;5052043;28;20021;-71
2022/01/30 15:33:27;;;;;;;13.90;3.85;;;;;;;;;;5052033;28;20029;-72
2022/01/30 15:36:12;;;;;;;15.48;4.28;;;;;;;;;;5052188;28;20468;-66
2022/01/30 15:38:58;;;;;;;8.30;2.72;;;;;;;;;;5038250;28;20108;-68
2022/01/30 15:41:43;;;;;;;11.90;3.08;;;;;;;;;;5052436;28;20017;-69
2022/01/30 15:49:00;;;;;;;12.65;2.88;;;;;;;;;;5051901;28;20025;-68
2022/01/30 15:50:42;;;;;;;11.27;3.53;;;;;;;;;;5052355;28;20464;-68
2022/01/30 15:53:28;;;;;;;11.07;3.67;;;;;;;;;;5050984;28;20124;-69
2022/01/30 15:56:14;;;;;;;14.55;3.45;;;;;;;;;;5051521;28;20388;-70
2022/01/30 15:59:00;;;;;;;9.32;4.28;;;;;;;;;;5038046;28;20089;-68
2022/01/30 16:01:46;;;;;;;14.55;3.30;;;;;;;;;;5052094;28;20021;-68
2022/01/30 16:04:32;;;;;;;12.82;3.30;;;;;;;;;;5050924;28;20025;-68
2022/01/30 16:07:17;;;;;;;13.52;3.08;;;;;;;;;;5052237;28;20529;-68
2022/01/30 16:10:09;;;;;;;14.43;3.00;;;;;;;;;;5052363;28;20025;-67
2022/01/30 16:15:46;;;;;;;17.75;3.55;;;;;;;;;;5055726;28;20476;-68
2022/01/30 16:18:32;;;;;;;18.13;3.95;;;;;;;;;;5055072;28;20048;-65
2022/01/30 16:21:17;;;;;;;14.63;4.30;;;;;;;;;;5055424;28;20047;-67
2022/01/30 16:24:03;;;;;;;13.00;3.10;;;;;;;;;;5055183;28;20052;-67
2022/01/30 16:26:49;;;;;;;18.55;3.83;;;;;;;;;;5055113;28;20131;-66
2022/01/30 16:29:34;;;;;;;14.45;3.97;;;;;;;;;;5054610;28;20064;-66
2022/01/30 16:32:20;;;;;;;16.40;4.97;;;;;;;;;;5055144;28;20044;-66
2022/01/30 16:35:09;;;;;;;11.20;4.05;;;;;;;;;;5054904;28;20376;-69
2022/01/30 16:37:55;;;;;;;12.55;4.78;;;;;;;;;;5054445;28;20438;-69
2022/01/30 16:40:41;;;;;;;18.20;5.60;;;;;;;;;;5054727;28;20037;-69
2022/01/30 16:43:39;;;;;;;36.25;11.90;;;;;;;;;;5053840;28;20029;-69
2022/01/30 16:49:11;;;;;;;22.80;6.07;;;;;;;;;;5054655;28;20017;-69
2022/01/30 16:51:57;;;;;;;18.35;5.15;;;;;;;;;;5054867;28;20094;-68
2022/01/30 16:54:42;;;;;;;13.35;4.28;;;;;;;;;;5054629;28;20108;-66
2022/01/30 16:57:28;;;;;;;13.32;4.10;;;;;;;;;;5054697;28;20056;-66
2022/01/30 17:00:17;;;;;;;13.57;3.72;;;;;;;;;;5054195;28;20036;-65
2022/01/30 17:03:03;;;;;;;14.32;3.78;;;;;;;;;;5053778;28;20436;-66
2022/01/30 17:05:48;;;;;;;18.60;4.45;;;;;;;;;;5054921;28;20379;-66
2022/01/30 17:08:34;;;;;;;11.32;3.53;;;;;;;;;;5054589;28;20035;-64
2022/01/30 17:11:21;;;;;;;16.42;5.22;;;;;;;;;;5054218;28;20368;-69
2022/01/30 17:14:06;;;;;;;15.77;4.53;;;;;;;;;;5053564;28;20028;-69
2022/01/30 17:16:52;;;;;;;11.40;3.40;;;;;;;;;;5054025;28;20024;-69
2022/01/30 17:19:38;;;;;;;13.30;3.33;;;;;;;;;;5054590;28;20116;-69
2022/01/30 17:22:25;;;;;;;13.27;3.92;;;;;;;;;;5054014;28;20079;-69
2022/01/30 17:25:11;;;;;;;14.48;3.72;;;;;;;;;;5053779;28;20125;-69
2022/01/30 17:27:58;;;;;;;16.75;3.40;;;;;;;;;;5054175;28;20024;-68
2022/01/30 17:30:44;;;;;;;14.70;3.88;;;;;;;;;;5040691;28;20071;-70